Tina-c — 2APY2 — position and weather

sailwx.info

Track history (hours):
 
Tides and Currents Weather Stations Pressure Air Temp Water Temp Dewpoint Dewpoint Depression Visibility Wind Speed Wind Dir Waves Ship Positions

Tina-c

Last reported at 2014-Jul-20 07:16 UTC. Time now 2014-Jul-22 23:16 UTC.
Position N 39°40' E 005°37'.

Length 99 m; draft 6 m.

Type: Cargo ship. MMSI: 235061987.

Date/timePositionNaut miles runAvg speedWind from/ knotsBaromVisibWave heightAir tempDewpointWater temp
2014-Jul-20 07:16N 39°40' E 005°37'810.5
2014-Jul-20 06:30N 39°44' E 005°27'1110.5
2014-Jul-20 05:25N 39°48' E 005°13'7 6.8
2014-Jul-20 04:21N 39°51' E 005°05'11 8.9
2014-Jul-20 03:04N 39°56' E 004°51'5 8.8
2014-Jul-20 02:31N 39°58' E 004°46'1010.0
2014-Jul-20 01:29N 40°02' E 004°33'9 9.7
2014-Jul-20 00:31N 40°06' E 004°22'8 7.8
2014-Jul-19 23:25N 40°09' E 004°12'8 9.4
2014-Jul-19 22:33N 40°12' E 004°02'12 9.3
2014-Jul-19 21:13N 40°17' E 003°47'17 9.1
2014-Jul-19 19:24N 40°23' E 003°27'7 8.7
2014-Jul-19 18:33N 40°26' E 003°18'9 8.9
2014-Jul-19 17:33N 40°29' E 003°07'10 9.5
2014-Jul-19 16:33N 40°33' E 002°55'10 9.6
2014-Jul-19 15:33N 40°36' E 002°43'9 9.5
2014-Jul-19 14:33N 40°40' E 002°32'9 9.3
2014-Jul-19 13:33N 40°43' E 002°20'9 9.4
2014-Jul-19 12:33N 40°47' E 002°09'9 9.2
2014-Jul-19 11:33N 40°50' E 001°57'9 9.3
2014-Jul-19 10:33N 40°53' E 001°46'9 9.1
2014-Jul-19 09:33N 40°57' E 001°35'9 9.1
2014-Jul-19 08:33N 41°00' E 001°24'9 8.5
2014-Jul-19 07:26N 41°04' E 001°12'2 0.8
2014-Jul-19 05:16N 41°06' E 001°14'0 0.0
2014-Jul-18 22:28N 41°06' E 001°14'0 0.0
2014-Jul-18 21:31N 41°06' E 001°14'0 0.0
2014-Jul-18 20:10N 41°06' E 001°14'0 0.0
2014-Jul-18 19:10N 41°06' E 001°14'0 0.0
2014-Jul-18 18:04N 41°06' E 001°14'0 0.0
2014-Jul-18 16:28N 41°06' E 001°14'0 0.1
2014-Jul-18 14:29N 41°06' E 001°14'6 6.2
2014-Jul-18 13:33N 41°04' E 001°21'1111.1
2014-Jul-18 12:33N 41°02' E 001°35'1010.2
2014-Jul-18 11:33N 41°02' E 001°49'1110.6
2014-Jul-18 10:33N 41°00' E 002°03'10 9.8
2014-Jul-18 09:33N 41°04' E 002°15'1010.4
2014-Jul-18 08:33N 41°10' E 002°26'1010.4
2014-Jul-18 07:33N 41°16' E 002°37'1010.4
2014-Jul-18 06:33N 41°22' E 002°48'1111.1
2014-Jul-18 05:33N 41°29' E 003°00'1111.3
2014-Jul-18 04:33N 41°36' E 003°12'1111.3
2014-Jul-18 03:33N 41°43' E 003°24'1110.7
2014-Jul-18 02:33N 41°52' E 003°30'1111.2
2014-Jul-18 01:33N 42°03' E 003°33'1111.0
2014-Jul-18 00:33N 42°14' E 003°35'1110.6
2014-Jul-17 23:33N 42°25' E 003°37'1110.8
2014-Jul-17 22:33N 42°35' E 003°39'2410.8
2014-Jul-17 20:20N 42°59' E 003°43'810.7
2014-Jul-17 19:33N 43°07' E 003°46'17 8.4
2014-Jul-17 17:30N 43°24' E 003°43'0 0.0
2014-Jul-17 15:03N 43°24' E 003°43'0 0.0
2014-Jul-17 03:33N 43°24' E 003°43'0 0.0
2014-Jul-17 00:31N 43°24' E 003°43'0 0.0
2014-Jul-16 23:33N 43°24' E 003°43'0 0.0
2014-Jul-16 20:19N 43°24' E 003°43'83 7.0
2014-Jul-16 08:27N 42°02' E 003°33'2110.4
2014-Jul-16 06:26N 41°41' E 003°25'910.3
2014-Jul-16 05:32N 41°34' E 003°18'1111.4
2014-Jul-16 04:34N 41°25' E 003°09'1010.3
2014-Jul-16 03:33N 41°17' E 003°00'1110.7
2014-Jul-16 02:34N 41°09' E 002°52'1110.9
2014-Jul-16 01:33N 40°60' E 002°43'1111.2
2014-Jul-16 00:33N 40°51' E 002°34'1111.1
2014-Jul-15 23:33N 40°42' E 002°26'1111.1
2014-Jul-15 22:33N 40°33' E 002°17'1111.0
2014-Jul-15 21:33N 40°24' E 002°08'1111.1
2014-Jul-15 20:33N 40°15' E 001°59'1111.4
2014-Jul-15 19:33N 40°06' E 001°50'1110.7
2014-Jul-15 18:33N 39°58' E 001°42'1111.1
2014-Jul-15 17:33N 39°49' E 001°33'1111.3
2014-Jul-15 16:33N 39°40' E 001°24'1211.4
2014-Jul-15 15:31N 39°30' E 001°15'1111.4
2014-Jul-15 14:33N 39°21' E 001°06'1111.4
2014-Jul-15 13:33N 39°12' E 000°58'10710.6
2014-Jul-15 03:27N 37°45' W 000°21'910.3
2014-Jul-15 02:33N 37°37' W 000°28'25510.5
2014-Jul-14 02:17N 35°59' W 005°21'236 7.1
2014-Jul-12 17:04N 33°07' W 008°38'  
Track history (hours):
 
Tides and Currents Weather Stations Pressure Air Temp Water Temp Dewpoint Dewpoint Depression Visibility Wind Speed Wind Dir Waves Ship Positions

Tina-c

Last reported at 2014-Jul-20 07:16 UTC. Time now 2014-Jul-22 23:16 UTC.
Position N 39°40' E 005°37'.

Length 99 m; draft 6 m.

Type: Cargo ship. MMSI: 235061987.

Date/timePositionNaut miles runAvg speedWind from/ knotsBaromVisibWave heightAir tempDewpointWater temp
2014-Jul-20 07:16N 39°40' E 005°37'810.5
2014-Jul-20 06:30N 39°44' E 005°27'1110.5
2014-Jul-20 05:25N 39°48' E 005°13'7 6.8
2014-Jul-20 04:21N 39°51' E 005°05'11 8.9
2014-Jul-20 03:04N 39°56' E 004°51'5 8.8
2014-Jul-20 02:31N 39°58' E 004°46'1010.0
2014-Jul-20 01:29N 40°02' E 004°33'9 9.7
2014-Jul-20 00:31N 40°06' E 004°22'8 7.8
2014-Jul-19 23:25N 40°09' E 004°12'8 9.4
2014-Jul-19 22:33N 40°12' E 004°02'12 9.3
2014-Jul-19 21:13N 40°17' E 003°47'17 9.1
2014-Jul-19 19:24N 40°23' E 003°27'7 8.7
2014-Jul-19 18:33N 40°26' E 003°18'9 8.9
2014-Jul-19 17:33N 40°29' E 003°07'10 9.5
2014-Jul-19 16:33N 40°33' E 002°55'10 9.6
2014-Jul-19 15:33N 40°36' E 002°43'9 9.5
2014-Jul-19 14:33N 40°40' E 002°32'9 9.3
2014-Jul-19 13:33N 40°43' E 002°20'9 9.4
2014-Jul-19 12:33N 40°47' E 002°09'9 9.2
2014-Jul-19 11:33N 40°50' E 001°57'9 9.3
2014-Jul-19 10:33N 40°53' E 001°46'9 9.1
2014-Jul-19 09:33N 40°57' E 001°35'9 9.1
2014-Jul-19 08:33N 41°00' E 001°24'9 8.5
2014-Jul-19 07:26N 41°04' E 001°12'2 0.8
2014-Jul-19 05:16N 41°06' E 001°14'0 0.0
2014-Jul-18 22:28N 41°06' E 001°14'0 0.0
2014-Jul-18 21:31N 41°06' E 001°14'0 0.0
2014-Jul-18 20:10N 41°06' E 001°14'0 0.0
2014-Jul-18 19:10N 41°06' E 001°14'0 0.0
2014-Jul-18 18:04N 41°06' E 001°14'0 0.0
2014-Jul-18 16:28N 41°06' E 001°14'0 0.1
2014-Jul-18 14:29N 41°06' E 001°14'6 6.2
2014-Jul-18 13:33N 41°04' E 001°21'1111.1
2014-Jul-18 12:33N 41°02' E 001°35'1010.2
2014-Jul-18 11:33N 41°02' E 001°49'1110.6
2014-Jul-18 10:33N 41°00' E 002°03'10 9.8
2014-Jul-18 09:33N 41°04' E 002°15'1010.4
2014-Jul-18 08:33N 41°10' E 002°26'1010.4
2014-Jul-18 07:33N 41°16' E 002°37'1010.4
2014-Jul-18 06:33N 41°22' E 002°48'1111.1
2014-Jul-18 05:33N 41°29' E 003°00'1111.3
2014-Jul-18 04:33N 41°36' E 003°12'1111.3
2014-Jul-18 03:33N 41°43' E 003°24'1110.7
2014-Jul-18 02:33N 41°52' E 003°30'1111.2
2014-Jul-18 01:33N 42°03' E 003°33'1111.0
2014-Jul-18 00:33N 42°14' E 003°35'1110.6
2014-Jul-17 23:33N 42°25' E 003°37'1110.8
2014-Jul-17 22:33N 42°35' E 003°39'2410.8
2014-Jul-17 20:20N 42°59' E 003°43'810.7
2014-Jul-17 19:33N 43°07' E 003°46'17 8.4
2014-Jul-17 17:30N 43°24' E 003°43'0 0.0
2014-Jul-17 15:03N 43°24' E 003°43'0 0.0
2014-Jul-17 03:33N 43°24' E 003°43'0 0.0
2014-Jul-17 00:31N 43°24' E 003°43'0 0.0
2014-Jul-16 23:33N 43°24' E 003°43'0 0.0
2014-Jul-16 20:19N 43°24' E 003°43'83 7.0
2014-Jul-16 08:27N 42°02' E 003°33'2110.4
2014-Jul-16 06:26N 41°41' E 003°25'910.3
2014-Jul-16 05:32N 41°34' E 003°18'1111.4
2014-Jul-16 04:34N 41°25' E 003°09'1010.3
2014-Jul-16 03:33N 41°17' E 003°00'1110.7
2014-Jul-16 02:34N 41°09' E 002°52'1110.9
2014-Jul-16 01:33N 40°60' E 002°43'1111.2
2014-Jul-16 00:33N 40°51' E 002°34'1111.1
2014-Jul-15 23:33N 40°42' E 002°26'1111.1
2014-Jul-15 22:33N 40°33' E 002°17'1111.0
2014-Jul-15 21:33N 40°24' E 002°08'1111.1
2014-Jul-15 20:33N 40°15' E 001°59'1111.4
2014-Jul-15 19:33N 40°06' E 001°50'1110.7
2014-Jul-15 18:33N 39°58' E 001°42'1111.1
2014-Jul-15 17:33N 39°49' E 001°33'1111.3
2014-Jul-15 16:33N 39°40' E 001°24'1211.4
2014-Jul-15 15:31N 39°30' E 001°15'1111.4
2014-Jul-15 14:33N 39°21' E 001°06'1111.4
2014-Jul-15 13:33N 39°12' E 000°58'10710.6
2014-Jul-15 03:27N 37°45' W 000°21'910.3
2014-Jul-15 02:33N 37°37' W 000°28'25510.5
2014-Jul-14 02:17N 35°59' W 005°21'236 7.1
2014-Jul-12 17:04N 33°07' W 008°38'  

Dump ship's entire track history